createdAt,value
2023-08-17T00:02:04.020Z,19.75
2023-08-17T00:05:08.190Z,20.00
2023-08-17T00:08:12.057Z,19.99
2023-08-17T00:11:15.434Z,19.99
2023-08-17T00:14:18.563Z,19.94
2023-08-17T00:17:25.418Z,19.89
2023-08-17T00:20:29.129Z,19.88
2023-08-17T00:23:32.587Z,19.86
2023-08-17T00:26:35.697Z,19.81
2023-08-17T00:29:39.403Z,19.78
2023-08-17T00:32:42.687Z,19.80
2023-08-17T00:35:46.962Z,19.83
2023-08-17T00:38:49.988Z,19.87
2023-08-17T00:41:53.699Z,19.87
2023-08-17T00:44:56.969Z,19.88
2023-08-17T00:48:00.949Z,19.87
2023-08-17T00:51:06.475Z,19.91
2023-08-17T00:54:11.544Z,19.91
2023-08-17T00:57:15.537Z,19.91
2023-08-17T01:00:20.160Z,19.90
2023-08-17T01:03:24.651Z,19.87
2023-08-17T01:06:28.173Z,19.86
2023-08-17T01:09:32.381Z,19.86
2023-08-17T01:13:02.008Z,19.90
2023-08-17T01:16:08.592Z,19.91
2023-08-17T01:19:22.228Z,19.91
2023-08-17T01:22:27.440Z,19.94
2023-08-17T01:25:31.126Z,19.93
2023-08-17T01:28:34.406Z,19.94
2023-08-17T01:31:48.507Z,19.92
2023-08-17T01:35:00.510Z,19.95
2023-08-17T01:38:08.221Z,19.90
2023-08-17T01:41:16.939Z,19.89
2023-08-17T01:44:20.426Z,19.94
2023-08-17T01:47:24.221Z,19.92
2023-08-17T01:50:27.892Z,19.88
2023-08-17T01:53:31.317Z,19.89
2023-08-17T01:56:34.718Z,19.86
2023-08-17T01:59:37.982Z,19.79
2023-08-17T02:02:41.997Z,19.76
2023-08-17T02:05:48.488Z,19.73
2023-08-17T02:08:52.975Z,19.64
2023-08-17T02:11:58.700Z,19.64
2023-08-17T02:15:01.933Z,19.61
2023-08-17T02:18:05.475Z,19.60
2023-08-17T02:21:08.572Z,19.64
2023-08-17T02:24:12.120Z,19.63
2023-08-17T02:27:15.243Z,19.62
2023-08-17T02:30:18.841Z,19.63
2023-08-17T02:33:21.923Z,19.63
2023-08-17T02:36:26.273Z,19.63
2023-08-17T02:39:29.449Z,19.60
2023-08-17T02:42:32.814Z,19.64
2023-08-17T02:45:36.416Z,19.63
2023-08-17T02:48:40.492Z,19.63
2023-08-17T02:51:43.640Z,19.64
2023-08-17T02:54:47.050Z,19.71
2023-08-17T02:57:50.183Z,19.73
2023-08-17T03:00:53.640Z,19.77
2023-08-17T03:03:57.300Z,19.79
2023-08-17T03:07:00.657Z,19.75
2023-08-17T03:10:04.882Z,19.72
2023-08-17T03:13:08.272Z,19.73
2023-08-17T03:16:12.440Z,19.74
2023-08-17T03:19:16.814Z,19.75
2023-08-17T03:22:20.371Z,19.80
2023-08-17T03:25:23.864Z,19.79
2023-08-17T03:28:28.445Z,19.78
2023-08-17T03:31:32.485Z,19.74
2023-08-17T03:34:35.953Z,19.75
2023-08-17T03:37:39.459Z,19.75
2023-08-17T03:40:43.019Z,19.69
2023-08-17T03:43:46.979Z,19.62
2023-08-17T03:46:50.543Z,19.66
2023-08-17T03:49:54.051Z,19.64
2023-08-17T03:52:57.229Z,19.62
2023-08-17T03:56:00.984Z,19.60
2023-08-17T03:59:05.029Z,19.54
2023-08-17T04:02:09.660Z,19.51
2023-08-17T04:05:13.310Z,19.51
2023-08-17T04:08:16.976Z,19.48
2023-08-17T04:11:20.358Z,19.47
2023-08-17T04:14:24.285Z,19.45
2023-08-17T04:17:28.174Z,19.45
2023-08-17T04:20:31.275Z,19.45
2023-08-17T04:23:34.694Z,19.40
2023-08-17T04:26:38.169Z,19.35
2023-08-17T04:29:46.034Z,19.30
2023-08-17T04:32:53.807Z,19.25
2023-08-17T04:35:58.096Z,19.25
2023-08-17T04:39:01.358Z,19.28
2023-08-17T04:42:05.604Z,19.33
2023-08-17T04:45:09.309Z,19.41
2023-08-17T04:48:13.641Z,19.55
2023-08-17T04:51:17.257Z,19.64
2023-08-17T04:54:21.227Z,19.75
2023-08-17T04:57:24.785Z,19.82
2023-08-17T05:00:32.114Z,19.93
2023-08-17T05:03:35.894Z,20.00
2023-08-17T05:06:45.339Z,20.08
2023-08-17T05:09:49.170Z,20.13
2023-08-17T05:12:52.612Z,20.20
2023-08-17T05:15:59.863Z,20.25
2023-08-17T05:19:03.409Z,20.38
2023-08-17T05:22:10.138Z,20.48
2023-08-17T05:25:13.928Z,20.54
2023-08-17T05:28:17.485Z,20.64
2023-08-17T05:31:22.023Z,20.70
2023-08-17T05:34:25.929Z,20.73
2023-08-17T05:37:30.066Z,20.75
2023-08-17T05:40:34.486Z,21.07
2023-08-17T05:43:38.458Z,21.39
2023-08-17T05:46:41.629Z,21.56
2023-08-17T05:49:45.384Z,21.76
2023-08-17T05:52:48.498Z,21.94
2023-08-17T05:55:52.288Z,22.21
2023-08-17T05:58:55.475Z,22.31
2023-08-17T06:01:59.725Z,22.22
2023-08-17T06:05:06.847Z,22.01
2023-08-17T06:08:10.204Z,21.98
2023-08-17T06:11:13.746Z,21.92
2023-08-17T06:14:17.326Z,21.84
2023-08-17T06:17:21.228Z,21.82
2023-08-17T06:20:24.360Z,21.83
2023-08-17T06:23:27.837Z,21.95
2023-08-17T06:26:33.360Z,22.15
2023-08-17T06:29:41.853Z,22.64
2023-08-17T06:32:45.196Z,23.09
2023-08-17T06:35:52.758Z,22.77
2023-08-17T06:38:56.039Z,22.48
2023-08-17T06:42:00.933Z,22.46
2023-08-17T06:45:06.356Z,22.62
2023-08-17T06:48:09.965Z,23.29
2023-08-17T06:51:15.808Z,23.45
2023-08-17T06:54:21.129Z,23.43
2023-08-17T06:57:24.892Z,23.37
2023-08-17T07:00:28.636Z,23.41
2023-08-17T07:03:31.763Z,23.53
2023-08-17T07:06:37.462Z,23.58
2023-08-17T07:09:40.669Z,23.64
2023-08-17T07:12:44.171Z,23.97
2023-08-17T07:16:00.227Z,24.02
2023-08-17T07:19:08.108Z,24.26
2023-08-17T07:22:17.711Z,24.36
2023-08-17T07:25:21.335Z,24.39
2023-08-17T07:28:25.362Z,24.46
2023-08-17T07:31:31.998Z,24.44
2023-08-17T07:34:38.124Z,24.59
2023-08-17T07:38:03.613Z,24.53
2023-08-17T07:41:14.975Z,24.84
2023-08-17T07:44:20.967Z,26.30
2023-08-17T07:47:26.663Z,27.25
2023-08-17T07:50:31.737Z,27.40
2023-08-17T07:53:35.224Z,27.11
2023-08-17T07:56:41.894Z,27.48
2023-08-17T07:59:49.750Z,27.12
2023-08-17T08:03:03.893Z,27.20
2023-08-17T08:06:10.654Z,26.83
2023-08-17T08:09:14.086Z,27.15
2023-08-17T08:12:57.093Z,27.17
2023-08-17T08:16:07.948Z,27.64
2023-08-17T08:19:14.837Z,28.37
2023-08-17T08:25:36.528Z,28.02
2023-08-17T08:28:59.155Z,27.17
2023-08-17T08:32:09.539Z,27.17
2023-08-17T08:35:13.087Z,27.00
2023-08-17T08:38:30.639Z,26.58
2023-08-17T08:41:38.079Z,26.37
2023-08-17T08:44:45.601Z,26.69
2023-08-17T08:47:53.776Z,26.69
2023-08-17T08:51:02.039Z,26.69
2023-08-17T08:54:13.013Z,26.76
2023-08-17T08:57:17.817Z,27.03
2023-08-17T09:00:21.467Z,27.35
2023-08-17T09:03:27.681Z,27.18
2023-08-17T09:06:32.209Z,27.04
2023-08-17T09:09:39.154Z,26.86
2023-08-17T09:12:42.673Z,26.86
2023-08-17T09:15:46.222Z,27.10
2023-08-17T09:18:49.624Z,27.07
2023-08-17T09:21:53.211Z,27.24
2023-08-17T09:25:03.709Z,27.51
2023-08-17T09:28:13.706Z,27.59
2023-08-17T09:31:17.586Z,28.37
2023-08-17T09:34:21.353Z,28.50
2023-08-17T09:37:24.647Z,29.46
2023-08-17T09:40:28.372Z,30.13
2023-08-17T09:43:34.627Z,29.39
2023-08-17T09:46:38.281Z,28.12
2023-08-17T09:49:43.661Z,28.01
2023-08-17T09:52:51.220Z,27.72
2023-08-17T09:55:58.483Z,27.43
2023-08-17T09:59:02.568Z,27.45
2023-08-17T10:02:35.263Z,27.98
2023-08-17T10:05:42.378Z,27.94
2023-08-17T10:08:51.888Z,27.49
2023-08-17T10:12:04.269Z,27.08
2023-08-17T10:15:13.370Z,27.02
2023-08-17T10:18:35.111Z,26.95
2023-08-17T10:21:44.562Z,26.87
2023-08-17T10:24:49.036Z,26.74
2023-08-17T10:27:53.529Z,26.77
2023-08-17T10:31:03.026Z,26.77
2023-08-17T10:34:06.651Z,27.00
2023-08-17T10:37:10.494Z,27.28
2023-08-17T10:40:15.936Z,27.45
2023-08-17T10:43:23.531Z,28.28
2023-08-17T10:46:37.027Z,28.50
2023-08-17T10:49:44.175Z,28.11
2023-08-17T10:52:55.067Z,28.05
2023-08-17T10:56:01.457Z,28.14
2023-08-17T10:59:26.259Z,28.04
2023-08-17T11:02:36.181Z,27.93
2023-08-17T11:05:48.345Z,27.88
2023-08-17T11:08:57.965Z,27.81
2023-08-17T11:12:02.461Z,27.81
2023-08-17T11:15:08.737Z,28.24
2023-08-17T11:18:15.007Z,29.26
2023-08-17T11:21:23.497Z,30.71
2023-08-17T11:24:30.281Z,31.23
2023-08-17T11:27:38.907Z,30.90
2023-08-17T11:31:00.936Z,30.60
2023-08-17T11:34:04.827Z,30.53
2023-08-17T11:37:08.078Z,30.54
2023-08-17T11:40:13.725Z,30.05
2023-08-17T11:46:29.929Z,29.14
2023-08-17T11:49:38.561Z,28.78
2023-08-17T11:52:48.426Z,28.93
2023-08-17T11:58:58.231Z,29.11
2023-08-17T12:02:03.051Z,29.80
2023-08-17T12:05:10.757Z,29.87
2023-08-17T12:08:15.749Z,30.24
2023-08-17T12:11:19.829Z,30.05
2023-08-17T12:14:23.222Z,30.51
2023-08-17T12:17:27.024Z,30.68
2023-08-17T12:20:31.265Z,30.40
2023-08-17T12:23:34.953Z,29.97
2023-08-17T12:26:42.651Z,30.06
2023-08-17T12:29:50.044Z,29.61
2023-08-17T12:32:55.086Z,30.32
2023-08-17T12:35:59.797Z,30.06
2023-08-17T12:39:03.819Z,29.76
2023-08-17T12:42:12.218Z,29.84
2023-08-17T12:45:16.400Z,30.30
2023-08-17T12:48:19.850Z,30.68
2023-08-17T12:51:22.981Z,30.09
2023-08-17T12:54:28.928Z,29.29
2023-08-17T12:57:31.972Z,29.74
2023-08-17T13:00:35.548Z,29.55
2023-08-17T13:03:38.825Z,29.40
2023-08-17T13:06:49.413Z,28.85
2023-08-17T13:09:53.176Z,28.43
2023-08-17T13:13:00.312Z,28.21
2023-08-17T13:16:13.447Z,28.02
2023-08-17T13:19:16.906Z,28.14
2023-08-17T13:22:19.983Z,28.09
2023-08-17T13:25:26.940Z,28.33
2023-08-17T13:28:30.096Z,28.17
2023-08-17T13:31:37.696Z,29.47
2023-08-17T13:34:46.329Z,29.28
2023-08-17T13:37:58.823Z,29.03
2023-08-17T13:41:01.880Z,28.86
2023-08-17T13:44:07.432Z,29.74
2023-08-17T13:47:10.647Z,30.28
2023-08-17T13:50:14.050Z,29.38
2023-08-17T13:53:19.855Z,28.97
2023-08-17T13:56:23.855Z,28.58
2023-08-17T13:59:26.910Z,28.12
2023-08-17T14:02:32.063Z,28.48
2023-08-17T14:05:36.108Z,29.12
2023-08-17T14:08:39.789Z,29.66
2023-08-17T14:11:43.185Z,29.46
2023-08-17T14:14:50.793Z,29.01
2023-08-17T14:17:54.516Z,28.77
2023-08-17T14:20:57.853Z,28.75
2023-08-17T14:24:01.480Z,28.52
2023-08-17T14:27:04.786Z,28.03
2023-08-17T14:30:09.124Z,27.57
2023-08-17T14:33:15.331Z,27.45
2023-08-17T14:36:20.802Z,27.34
2023-08-17T14:39:25.295Z,27.29
2023-08-17T14:42:30.750Z,27.32
2023-08-17T14:45:34.093Z,27.28
2023-08-17T14:48:37.544Z,26.89
2023-08-17T14:51:41.990Z,26.58
2023-08-17T14:54:45.629Z,26.40
2023-08-17T14:57:48.702Z,26.21
2023-08-17T15:00:52.347Z,26.07
2023-08-17T15:03:55.606Z,25.94
2023-08-17T15:06:58.997Z,25.79
2023-08-17T15:11:03.305Z,25.72
2023-08-17T15:14:07.930Z,25.68
2023-08-17T15:17:13.831Z,25.79
2023-08-17T15:20:17.621Z,25.92
2023-08-17T15:23:20.642Z,25.97
2023-08-17T15:26:25.166Z,25.94
2023-08-17T15:29:28.420Z,25.74
2023-08-17T15:32:32.434Z,25.63
2023-08-17T15:35:35.720Z,25.55
2023-08-17T15:38:39.152Z,25.47
2023-08-17T15:41:42.272Z,25.46
2023-08-17T15:44:45.628Z,25.47
2023-08-17T15:47:49.141Z,25.46
2023-08-17T15:50:53.557Z,25.42
2023-08-17T15:53:59.652Z,25.37
2023-08-17T15:57:03.439Z,25.28
2023-08-17T16:00:07.290Z,25.19
2023-08-17T16:03:13.478Z,25.04
2023-08-17T16:06:17.974Z,24.37
2023-08-17T16:09:24.202Z,23.61
2023-08-17T16:12:29.679Z,22.96
2023-08-17T16:15:32.925Z,22.48
2023-08-17T16:18:39.444Z,22.16
2023-08-17T16:21:43.673Z,22.14
2023-08-17T16:24:47.506Z,22.07
2023-08-17T16:27:50.732Z,22.05
2023-08-17T16:30:54.404Z,21.95
2023-08-17T16:33:59.640Z,21.91
2023-08-17T16:37:06.761Z,21.76
2023-08-17T16:40:15.298Z,21.77
2023-08-17T16:43:27.913Z,21.70
2023-08-17T16:46:31.787Z,21.76
2023-08-17T16:49:38.781Z,21.73
2023-08-17T16:52:42.455Z,21.59
2023-08-17T16:55:54.860Z,21.48
2023-08-17T16:59:01.627Z,21.40
2023-08-17T17:02:14.390Z,21.38
2023-08-17T17:05:18.099Z,21.35
2023-08-17T17:08:21.861Z,21.38
2023-08-17T17:11:29.134Z,21.30
2023-08-17T17:14:33.757Z,21.28
2023-08-17T17:17:37.735Z,21.25
2023-08-17T17:20:42.029Z,21.20
2023-08-17T17:23:48.568Z,21.14
2023-08-17T17:26:53.662Z,21.14
2023-08-17T17:29:57.000Z,21.08
2023-08-17T17:33:06.901Z,21.05
2023-08-17T17:36:10.204Z,21.06
2023-08-17T17:39:13.891Z,21.09
2023-08-17T17:42:17.690Z,21.10
2023-08-17T17:45:22.519Z,21.19
2023-08-17T17:48:26.850Z,21.18
2023-08-17T17:51:34.120Z,21.08
2023-08-17T21:24:49.995Z,19.88
2023-08-17T21:27:53.930Z,19.88
2023-08-17T21:31:04.935Z,19.86
2023-08-17T21:34:08.482Z,19.81
2023-08-17T21:37:26.958Z,19.83
2023-08-17T21:40:31.799Z,19.84
2023-08-17T21:43:35.197Z,19.87
2023-08-17T21:46:40.939Z,19.87
2023-08-17T21:49:47.518Z,19.85
2023-08-17T21:52:51.533Z,19.86
2023-08-17T21:55:54.685Z,19.85
2023-08-17T21:59:00.770Z,19.86
2023-08-17T22:02:10.903Z,19.87
2023-08-17T22:05:14.830Z,19.85
2023-08-17T22:08:18.057Z,19.87
2023-08-17T22:11:24.403Z,19.83
2023-08-17T22:14:30.393Z,19.85
2023-08-17T22:17:34.129Z,19.83
2023-08-17T22:20:43.012Z,19.74
2023-08-17T22:23:48.994Z,19.82
2023-08-17T22:26:52.175Z,19.79
2023-08-17T22:29:55.765Z,19.76
2023-08-17T22:32:59.086Z,19.70
2023-08-17T22:36:04.234Z,19.69
2023-08-17T22:39:07.538Z,19.66
2023-08-17T22:42:12.131Z,19.63
2023-08-17T22:45:15.477Z,19.63
2023-08-17T22:48:19.092Z,19.63
2023-08-17T22:51:22.333Z,19.64
2023-08-17T22:54:26.118Z,19.73
2023-08-17T22:57:29.695Z,19.72
2023-08-17T23:00:37.498Z,19.67
2023-08-17T23:03:40.696Z,19.69
2023-08-17T23:06:44.150Z,19.69
2023-08-17T23:09:52.153Z,19.68
2023-08-17T23:12:58.131Z,19.60
2023-08-17T23:16:05.079Z,19.54
2023-08-17T23:19:13.055Z,19.61
2023-08-17T23:22:21.581Z,19.62
2023-08-17T23:25:26.656Z,19.57
2023-08-17T23:28:29.872Z,19.58
2023-08-17T23:31:33.764Z,19.58
2023-08-17T23:34:39.510Z,19.56
2023-08-17T23:37:42.852Z,19.56
2023-08-17T23:40:46.001Z,19.58
2023-08-17T23:43:52.120Z,19.60
2023-08-17T23:46:55.167Z,19.57
2023-08-17T23:50:00.839Z,19.59
2023-08-17T23:53:04.211Z,19.57
2023-08-17T23:56:10.038Z,19.57
2023-08-17T23:59:13.247Z,19.59
